Terminal Aerodrome Forecast
Issued by NWS

Home | Current Version | Previous Version | Text Only | Print | Product List | Glossary On
Versions: 1 2 3 4 5 6 7 8 9 10 11 12 13 14 15 16 17 18 19 20 21 22 23 24 25
000
FTUS45 KPSR 111440 AAA
TAFPHX
TAF AMD
KPHX 111440Z 1115/1218 12005KT P6SM BKN220
     FM112300 24005KT P6SM BKN250
     FM120400 07007KT P6SM BKN250=

USA.gov is the U.S. government's official web portal to all federal, state and local government web resources and services.